This is the latest recevied weather packets stored in our database for station/object KM4NDN. If no packets are shown the sender has not sent any weather packets the latest 1 day(s).
| Time | Temp. | Humidity | Pressure | Rain* | Wind** | Luminosity | Snow |
|---|---|---|---|---|---|---|---|
| 1778097460 | 12.78° C | 48% | 1010.8 hPa | 0 mm | - | 394 W/m² | - |
| 1778096854 | 12.78° C | 49% | 1010.7 hPa | 0 mm | - | 505 W/m² | - |
| 1778095641 | 13.33° C | 46% | 1010.7 hPa | 0 mm | - | 403 W/m² | - |
| 1778095035 | 13.33° C | 46% | 1010.9 hPa | 0 mm | - | 413 W/m² | - |
| 1778094731 | 13.33° C | 46% | 1010.9 hPa | 0 mm | - | 447 W/m² | - |
| 1778093216 | 13.33° C | 44% | 1010.5 hPa | 0 mm | - | 475 W/m² | - |
| 1778092913 | 13.33° C | 45% | 1010.5 hPa | 0 mm | - | 451 W/m² | - |
| 1778092610 | 13.33° C | 46% | 1010.5 hPa | 0 mm | - | 435 W/m² | - |
| 1778091700 | 13.33° C | 46% | 1010.6 hPa | 0 mm | - | 381 W/m² | - |
| 1778091398 | 13.33° C | 44% | 1010.6 hPa | 0 mm | - | 754 W/m² | - |
| 1778091095 | 13.33° C | 47% | 1010.7 hPa | 0 mm | - | 465 W/m² | - |
| 1778090488 | 12.78° C | 48% | 1010.6 hPa | 0 mm | - | 893 W/m² | - |
| 1778089880 | 12.78° C | 42% | 1010.7 hPa | 0 mm | - | 564 W/m² | - |
| 1778089276 | 12.78° C | 46% | 1010.9 hPa | 0 mm | - | 549 W/m² | - |
| 1778088670 | 13.33° C | 48% | 1010.9 hPa | 0 mm | - | 474 W/m² | - |
| 1778088368 | 12.78° C | 47% | 1010.7 hPa | 0 mm | - | 422 W/m² | - |
| 1778087150 | 12.78° C | 50% | 1011 hPa | 0 mm | - | 901 W/m² | - |
| 1778085636 | 12.22° C | 53% | 1010.9 hPa | 0 mm | - | 865 W/m² | - |
| 1778085332 | 12.78° C | 47% | 1010.9 hPa | 0 mm | - | 624 W/m² | - |
| 1778079978 | 11.67° C | 63% | 1010.2 hPa | 0 mm | - | 661 W/m² | - |
| 1778079675 | 11.67° C | 63% | 1010 hPa | 0 mm | - | 616 W/m² | - |
| 1778079372 | 11.67° C | 61% | 1009.7 hPa | 0 mm | - | 616 W/m² | - |
| 1778079069 | 11.67° C | 63% | 1009.9 hPa | 0 mm | - | 662 W/m² | - |
| 1778077556 | 11.11° C | 68% | 1009.4 hPa | 0 mm | - | 478 W/m² | - |
| 1778076347 | 10.56° C | 73% | 1009.5 hPa | 0 mm | - | 573 W/m² | - |
* Rain latest hour (hover to see other rain measurements)
** Current wind speed in m/s (hover to see current wind gust speed)